Flight Track Log - Related Links

Times and Time Zones

All times are in EDT time to prevent confusion due to time zone crossing. See the CNS426 flight status page for this flight to view local times or setup timezone preferences in your user account.

Time Position Orientation Groundspeed Altitude Reporting Facility
EDT Latitude Longitude Course Direction KTS MPH feet Rate Location/Type
Mon 01:03:03 PM 39.2333 -76.7000 322° Northwest 143 165 2,400  Level Potomac TRACON
Mon 01:03:58 PM 39.2500 -76.7333 303° West 156 180 3,900 1,774 Climbing Potomac TRACON
Mon 01:04:58 PM 39.2833 -76.7667 322° Northwest 133 153 5,800 1,450 Climbing Potomac TRACON
Mon 01:05:58 PM 39.3000 -76.8167 293° West 172 198 6,800 1,041 Climbing Potomac TRACON
Mon 01:06:59 PM 39.3000 -76.8833 270° West 175 201 7,900 595 Climbing Potomac TRACON
Mon 01:07:59 PM 39.3167 -76.9667 285° West 213 245 8,000 50 Climbing Potomac TRACON
Mon 01:09:00 PM 39.3167 -77.0333 270° West 221 254 8,000  Level Potomac TRACON
Mon 01:09:54 PM 39.3167 -77.1167 270° West 224 258 8,000  Level Potomac TRACON
Mon 01:10:54 PM 39.3333 -77.1833 288° West 217 250 8,000 150 Level Potomac TRACON
Mon 01:11:54 PM 39.3333 -77.2667 270° West 221 254 8,300 744 Climbing Potomac TRACON
Mon 01:12:55 PM 39.3333 -77.3333 270° West 200 230 9,500 1,091 Climbing Potomac TRACON
Mon 01:13:55 PM 39.3333 -77.4167 270° West 196 226 10,500 952 Climbing Potomac TRACON
Mon 01:15:01 PM 39.3167 -77.4833 252° West 205 236 11,500 900 Climbing Potomac TRACON
Mon 01:15:55 PM 39.3000 -77.5500 252° West 209 241 12,300 991 Climbing Potomac TRACON
Mon 01:16:56 PM 39.3000 -77.6333 270° West 205 236 13,400 991 Climbing Potomac TRACON
Mon 01:17:50 PM 39.2833 -77.6833 247° West 202 232 14,200 939 Climbing Potomac TRACON
Mon 01:18:51 PM 39.2667 -77.7667 256° West 211 243 15,200 906 Climbing Potomac TRACON
Mon 01:19:36 PM 39.2617 -77.8164 263° West 215 247 15,800 398 Climbing Washington Center
Mon 01:21:52 PM 39.2333 -78.0000 259° West 257 296 16,400 209 Climbing Potomac TRACON
Mon 01:22:57 PM 39.2147 -78.0964 256° West 254 292 16,500 96 Climbing Washington Center
Mon 01:23:57 PM 39.2003 -78.1817 258° West 254 292 16,600 50 Climbing Washington Center
Mon 01:24:57 PM 39.1858 -78.2667 258° West 254 292 16,600  Level Washington Center
Mon 01:25:58 PM 39.1714 -78.3519 258° West 254 292 16,600  Level Washington Center
Mon 01:26:57 PM 39.1569 -78.4344 257° West 248 285 16,600  Level Washington Center
Mon 01:27:58 PM 39.1425 -78.5222 258° West 248 285 16,600  Level Washington Center
Mon 01:28:58 PM 39.1278 -78.6072 257° West 248 285 16,600  Level Washington Center
Mon 01:29:57 PM 39.1133 -78.6922 258° West 248 285 16,600  Level Washington Center
Mon 01:30:58 PM 39.0983 -78.7772 257° West 248 285 16,600  Level Washington Center
Mon 01:31:58 PM 39.0836 -78.8619 257° West 248 285 16,600  Level Washington Center
Mon 01:32:58 PM 39.0689 -78.9469 257° West 248 285 16,600 -50 Level Washington Center
Mon 01:33:57 PM 39.0539 -79.0344 258° West 248 285 16,500  Descending Washington Center
Mon 01:34:57 PM 39.0389 -79.1219 258° West 248 285 16,600 49 Climbing Washington Center
Mon 01:35:59 PM 39.0239 -79.2067 257° West 248 285 16,600  Level Washington Center
Mon 01:36:59 PM 39.0067 -79.2914 255° West 248 285 16,600  Level Washington Center
Mon 01:37:57 PM 38.9914 -79.3814 258° West 253 291 16,600  Level Washington Center
Mon 01:38:58 PM 38.9761 -79.4661 257° West 253 291 16,600  Level Washington Center
Mon 01:39:58 PM 38.9586 -79.5558 256° West 258 297 16,600  Level Washington Center
Mon 01:40:57 PM 38.9472 -79.6433 261° West 269 310 16,600  Level Washington Center
Mon 01:41:58 PM 38.9275 -79.7383 255° West 269 310 16,600  Level Washington Center
Mon 01:42:59 PM 38.9117 -79.8283 257° West 264 304 16,600 -48 Level Washington Center
Mon 01:44:03 PM 38.8947 -79.9058 254° West 252 290 16,500 -48 Descending Indianapolis Center
Mon 01:45:05 PM 38.8750 -80.0067 256° West 251 289 16,500  Level Indianapolis Center
Mon 01:46:07 PM 38.8606 -80.0847 257° West 250 288 16,500  Level Indianapolis Center
Mon 01:47:09 PM 38.8453 -80.1711 257° West 248 285 16,500  Level Indianapolis Center
Mon 01:48:11 PM 38.8253 -80.2747 256° West 248 285 16,500  Level Indianapolis Center
Mon 01:49:12 PM 38.8083 -80.3614 256° West 249 287 16,500  Level Indianapolis Center
Mon 01:50:14 PM 38.7928 -80.4478 257° West 250 288 16,500  Level Indianapolis Center
Mon 01:51:16 PM 38.7756 -80.5336 256° West 249 287 16,500  Level Indianapolis Center
Mon 01:52:18 PM 38.7600 -80.6208 257° West 252 290 16,500  Level Indianapolis Center
Mon 01:53:20 PM 38.7433 -80.7072 256° West 251 289 16,500  Level Indianapolis Center
Mon 01:54:21 PM 38.7267 -80.7947 256° West 253 291 16,500  Level Indianapolis Center
Mon 01:55:23 PM 38.7094 -80.8808 256° West 249 287 16,500  Level Indianapolis Center
Mon 01:56:25 PM 38.6886 -80.9858 256° West 253 291 16,500  Level Indianapolis Center
Mon 01:57:27 PM 38.6722 -81.0728 256° West 252 290 16,500  Level Indianapolis Center
Mon 01:58:28 PM 38.6550 -81.1592 256° West 251 289 16,500  Level Indianapolis Center
Mon 01:59:30 PM 38.6372 -81.2472 256° West 251 289 16,500  Level Indianapolis Center
Mon 02:00:32 PM 38.6208 -81.3342 256° West 254 292 16,500  Level Indianapolis Center
Mon 02:01:33 PM 38.6028 -81.4214 255° West 252 290 16,500  Level Indianapolis Center
Mon 02:02:35 PM 38.5850 -81.5097 256° West 252 290 16,500  Level Indianapolis Center
Mon 02:03:37 PM 38.5672 -81.5978 256° West 252 290 16,500  Level Indianapolis Center
Mon 02:04:38 PM 38.5500 -81.6853 256° West 253 291 16,500 -829 Level Indianapolis Center
Mon 02:05:40 PM 38.5308 -81.7806 256° West 273 314 14,800 -1,790 Descending Indianapolis Center
Mon 02:06:42 PM 38.5100 -81.8806 255° West 291 335 12,800 -2,032 Descending Indianapolis Center
Mon 02:07:44 PM 38.4881 -81.9919 256° West 271 312 10,600 -1,805 Descending Indianapolis Center
Mon 02:08:45 PM 38.4722 -82.0842 258° West 266 306 9,100 -1,561 Descending Indianapolis Center
Mon 02:09:47 PM 38.4606 -82.1758 261° West 263 303 7,400 -1,548 Descending Indianapolis Center
Mon 02:10:49 PM 38.4531 -82.2656 264° West 256 295 5,900 -1,258 Descending Indianapolis Center
Mon 02:11:51 PM 38.4431 -82.3542 262° West 253 291 4,800 -1,065 Descending Indianapolis Center
Mon 02:12:53 PM 38.4317 -82.4350 260° West 240 276 3,700 -1,024 Descending Indianapolis Center
Mon 02:13:54 PM 38.4200 -82.5119 259° West 213 245 2,700 -634 Descending Indianapolis Center
Mon 02:14:56 PM 38.4172 -82.5622 266° West 157 181 2,400 -532 Descending Indianapolis Center
Mon 02:15:58 PM 38.3942 -82.5975 230° Southwest 140 161 1,600 -484 Descending Indianapolis Center
Mon 02:17:00 PM 38.3697 -82.5742 143° Southeast 127 146 1,400 -194 Descending Indianapolis Center
Mon 02:18:00 PM 38.3685 -82.5604 90° East  Level Estimated

Login

Don't have an account? Register now (free) for customized features, flight alerts, and more!